^^

..:: Metar reader and decoder ::..





LIRG - Roma-Guidonia (it-Afb, Italy
Dati ricevuti: Thu, 23-May-2024 19:55
Sereno
Sereno
 Vento da SSO
Vento: SSO 11 km/h
Temperatura: 21°C
P.to Rugiada: 8°C
Umidità: 43%
Barometro: 1018 hPa
Sommario: Sereno
Visibilità: superiore a 10 km
2024/05/23 17:55 LIRG 231755Z 20006KT CAVOK 21/08 Q1018
LIRE - Roma-Pratica Di Mare(, Italy
Dati ricevuti: Thu, 23-May-2024 19:55
Sereno
Sereno
 Vento da SO
Vento: SO 9 km/h
Temperatura: 20°C
P.to Rugiada: 16°C
Umidità: 78%
Barometro: 1017 hPa
Sommario: Sereno
Visibilità: superiore a 10 km
2024/05/23 17:55 LIRE 231755Z 22005KT CAVOK 20/16 Q1017
 
LIRF - Roma-Fiumicino, Italy
Dati ricevuti: Thu, 23-May-2024 19:50
Sereno
Sereno
 Vento da SO
Vento: SO 15 km/h
Temperatura: 20°C
P.to Rugiada: 12°C
Umidità: 60%
Barometro: 1018 hPa
Sommario: Sereno
Visibilità: superiore a 10 km
2024/05/23 17:50 LIRF 231750Z 23008KT 200V260 CAVOK 20/12 Q1018 NOSIG
LIRL - Latina (it-Afb), Italy
Dati ricevuti: Thu, 23-May-2024 19:55
Sereno
Sereno
 Vento da Variabile
Vento: Variabile 0 km/h
Temperatura: 21°C
P.to Rugiada: 13°C
Umidità: 60%
Barometro: 1017 hPa
Sommario: Sereno
Visibilità: superiore a 10 km
2024/05/23 17:55 LIRL 231755Z /////KT CAVOK 21/13 Q1017
 
LIRH - Frosinone (it-Af, Italy
Dati ricevuti: Thu, 23-May-2024 19:55
Parz. nuvoloso
Parz. nuvoloso
 Vento da O
Vento: O 4 km/h
Temperatura: 22°C
P.to Rugiada: 13°C
Umidità: 57%
Barometro: 1017 hPa
Nuvole: Parz. nuvoloso
Visibilità: 10 km
Dettaglio nuvole: Parz. nuvoloso 1067 m
2024/05/23 17:55 LIRH 231755Z 28002KT 9999 SCT035 22/13 Q1017
LIQN - Rieti, Italy
Dati ricevuti: Thu, 23-May-2024 19:50
Few Clouds
Few Clouds
 Vento da S
Vento: S 7 km/h
Temperatura: 20°C
P.to Rugiada: 8°C
Umidità: 46%
Barometro: 1018 hPa
Nuvole: Few Clouds
Visibilità: 10 km
Dettaglio nuvole: Few Clouds 1372 m
2024/05/23 17:50 LIQN 231750Z 17004KT 130V220 9999 FEW045 20/08 Q1018
 
LIRK - Rieti-Monte Terminillo, Italy
Dati ricevuti: Thu, 23-May-2024 19:55

 Vento da ONO
Vento: ONO 11 km/h
Temperatura: 7°C
Temperatura del Vento: 5°C
P.to Rugiada: 6°C
Umidità: 93%
Barometro: 1020 hPa
2024/05/23 17:55 LIRK 231755Z AUTO 29006KT //// 07/06 Q1020
LIRV - Viterbo (it-Mil), Italy
Dati ricevuti: Thu, 23-May-2024 19:55
Few Clouds
Few Clouds
 Vento da SSO
Vento: SSO 15 km/h
Temperatura: 18°C
P.to Rugiada: 13°C
Umidità: 73%
Barometro: 1017 hPa
Nuvole: Few Clouds
Visibilità: 10 km
Dettaglio nuvole: Few Clouds 732 m
2024/05/23 17:55 LIRV 231755Z 21008KT 9999 FEW024 18/13 Q1017
 
LIQO - Grosseto-Monte Argentario, Italy
Dati ricevuti: Thu, 23-May-2024 19:55

 Vento da Variabile
Vento: Variabile 6 km/h
Temperatura: 16°C
P.to Rugiada: 14°C
Umidità: 88%
Barometro: 1018 hPa
2024/05/23 17:55 LIQO 231755Z AUTO VRB03KT //// 16/14 Q1018
LIRZ - Perugia, Italy
Dati ricevuti: Thu, 23-May-2024 19:50
Few Clouds
Few Clouds
 Vento da N
Vento: N 11 km/h
Temperatura: 17°C
P.to Rugiada: 17°C
Umidità: 100%
Barometro: 1017 hPa
Nuvole: Few Clouds
Visibilità: 10 km
Dettaglio nuvole: Few Clouds 6401 m
2024/05/23 17:50 LIRZ 231750Z AUTO 36006KT 9999 FEW210/// 17/17 Q1017
 
LIBP - Pescara, Italy
Dati ricevuti: Thu, 23-May-2024 19:50
Few Clouds
Few Clouds
 Vento da ENE
Vento: ENE 7 km/h
Temperatura: 21°C
P.to Rugiada: 13°C
Umidità: 60%
Barometro: 1017 hPa
Nuvole: Few Clouds
Visibilità: 10 km
Dettaglio nuvole: Few Clouds 2774 m
2024/05/23 17:50 LIBP 231750Z AUTO 07004KT 9999 FEW091/// 21/13 Q1017
LIRM - Caserta-Grazzanise (it-A, Italy
Dati ricevuti: Thu, 23-May-2024 19:55
Sereno
Sereno
 Vento da SSO
Vento: SSO 11 km/h
Temperatura: 21°C
P.to Rugiada: 15°C
Umidità: 69%
Barometro: 1018 hPa
Sommario: Sereno
Visibilità: superiore a 10 km
2024/05/23 17:55 LIRM 231755Z 21006KT CAVOK 21/15 Q1018
 
LIRS - Grosseto (it-Afb, Italy
Dati ricevuti: Thu, 23-May-2024 19:55
Few Clouds
Few Clouds
 Vento da SO
Vento: SO 9 km/h
Temperatura: 21°C
P.to Rugiada: 19°C
Umidità: 88%
Barometro: 1016 hPa
Nuvole: Few Clouds
Visibilità: 10 km
Dettaglio nuvole: Few Clouds 762 m
2024/05/23 17:55 LIRS 231755Z 22005KT 9999 FEW025 21/19 Q1016
LIRN - Napoli-Capodichino, Italy
Dati ricevuti: Thu, 23-May-2024 19:50
Sereno
Sereno
 Vento da SSO
Vento: SSO 7 km/h
Temperatura: 21°C
P.to Rugiada: 12°C
Umidità: 57%
Barometro: 1018 hPa
Sommario: Sereno
Visibilità: superiore a 10 km
2024/05/23 17:50 LIRN 231750Z 21004KT 180V240 CAVOK 21/12 Q1018 NOSIG
 
LIVF - Pesaro Urbino-Frontone, Italy
Dati ricevuti: Thu, 23-May-2024 19:55
Parz. nuvoloso
Parz. nuvoloso
 Vento da SSO
Vento: SSO 9 km/h
Temperatura: 18°C
P.to Rugiada: 8°C
Umidità: 52%
Barometro: 1015 hPa
Nuvole: Parz. nuvoloso
Visibilità: 10 km
Dettaglio nuvole: Few Clouds 853 m
Few Clouds 1006 m
Parz. nuvoloso 1067 m
2024/05/23 17:55 LIVF 231755Z 21005KT 9999 FEW028 FEW033TCU SCT035 18/08 Q1015
LIQC - Capri, Italy
Dati ricevuti: Thu, 23-May-2024 18:55
Sereno
Sereno
 Vento da SO
Vento: SO 11 km/h
Temperatura: 22°C
P.to Rugiada: 15°C
Umidità: 65%
Barometro: 1019 hPa
Sommario: Sereno
Visibilità: superiore a 10 km
2024/05/23 16:55 LIQC 231655Z 23006KT CAVOK 22/15 Q1019 RMK SKC QUK 2 QUL 1 SW VIS MAR 30 KM VIS MIN 9999
 
LIPY - Ancona-Falconara (it-Af, Italy
Dati ricevuti: Thu, 23-May-2024 19:50
Parz. nuvoloso
Parz. nuvoloso
 Vento da S
Vento: S 13 km/h
Temperatura: 20°C
P.to Rugiada: 13°C
Umidità: 64%
Barometro: 1016 hPa
Nuvole: Parz. nuvoloso
Visibilità: 10 km
Dettaglio nuvole: Few Clouds 2804 m
Parz. nuvoloso 6096 m
2024/05/23 17:50 LIPY 231750Z AUTO 19007KT 160V220 9999 FEW092/// SCT200/// 20/13 Q1016
LIRX - Monte Calamita, Italy
Dati ricevuti: Thu, 23-May-2024 18:55
Few Clouds
Few Clouds
 Vento da NO
Vento: NO 19 km/h
Temperatura: 19°C
P.to Rugiada: 14°C
Umidità: 73%
Barometro: 1017 hPa
Nuvole: Few Clouds
Visibilità: 10 km
Dettaglio nuvole: Few Clouds 305 m
2024/05/23 16:55 LIRX 231655Z 31010KT 9999 FEW010 19/14 Q1017
 
LIEB - Cape Bellavista, Italy
Dati ricevuti: Thu, 23-May-2024 18:55
Few Clouds
Few Clouds
 Vento da SE
Vento: SE 11 km/h
Temperatura: 22°C
P.to Rugiada: 19°C
Umidità: 83%
Barometro: 1017 hPa
Nuvole: Few Clouds
Visibilità: 10 km
Dettaglio nuvole: Few Clouds 610 m
2024/05/23 16:55 LIEB 231655Z 13006KT 9999 FEW020 22/19 Q1017 RMK SCT SCT200 QUK 2 QUL 0 VIS MAR 30 KM MON NW CIME INC NC VIS MIN 9999
LIEC - Cape Carbonara, Italy
Dati ricevuti: Thu, 23-May-2024 18:55
Few Clouds
Few Clouds
 Vento da S
Vento: S 4 km/h
Temperatura: 21°C
P.to Rugiada: 16°C
Umidità: 73%
Barometro: 1016 hPa
Nuvole: Few Clouds
Visibilità: 10 km
Dettaglio nuvole: Few Clouds 610 m
2024/05/23 16:55 LIEC 231655Z 18002KT 9999 FEW020 21/16 Q1016 RMK SCT SCT200 QUK 1 QUL 0 VIS MAR 25 KM VIS MIN 9999






METEO PILLOLE
Il luogo più arido della Terra
Arica (65 m)- Cile
Da 50 anni, in media cadono appena 7 mm di pioggia all'anno.

Do NOT follow this link or you will be banned from the site!